Eagle Point, Oregon
Current Conditions -  °F | °C
As of 11:53 AM on Thursday 18 Dec 2014 (Local Time) from KMFR Reporting Station
Haze Haze  
Wind Chill: 46°   Ceiling: 600
Heat Index: 46°   Visibility: 3mi
Dew Point: 42°   Wind: 3mph
Humidity: 86%   Direction: 360°N
Pressure: 30.03"   Gusts: NA
Location:  42.47°N, 122.8°W
Report Text: KMFR 181953Z 36003KT 3SM BR BKN006 08/06 A3003 RMK AO2 SLP173 T00780056
Loading
Personal Weather Stations






























Interactive Weather Map New forecast layout! Learn more

10-Day Weather Forecast

Advertisements
Track Severe Weather on mobile